DAL8866 KLAX-KSLC
Flight info
| Callsign | DAL8866 |
|---|---|
| Flight time | N/A |
| Altitude | 37000 |
| Route | ORCKA5 LAS Q70 BLIPP Q842 WINEN MLF QWENN6 |
| Aircraft | A339/H-SADE1E2E3GHIJ3J5M1P2RWXY/LB2D1 |
Departure
| Time | 2026-04-25 20:09 |
|---|---|
| Airport | Los Angeles International Airport (KLAX) |
Arrival
| Time | N/A |
|---|---|
| Airport | Salt Lake City International Airport (KSLC) |
| Time | Latitude | Longitude | Altitude | Speed | Heading |
|---|---|---|---|---|---|
| 2026-04-25 19:40 | 33.94100 | -118.41084 | 134 ft | 0 kts | 83° |
| 2026-04-25 19:55 | 33.94099 | -118.41094 | 134 ft | 2 kts | 83° |
| 2026-04-25 19:56 | 33.94097 | -118.41112 | 134 ft | 2 kts | 83° |
| 2026-04-25 19:56 | 33.94095 | -118.41130 | 134 ft | 2 kts | 83° |
| 2026-04-25 19:56 | 33.94093 | -118.41148 | 134 ft | 2 kts | 87° |
| 2026-04-25 19:56 | 33.94095 | -118.41165 | 134 ft | 2 kts | 110° |
| 2026-04-25 19:57 | 33.94102 | -118.41182 | 134 ft | 2 kts | 128° |
| 2026-04-25 19:57 | 33.94112 | -118.41194 | 134 ft | 2 kts | 146° |
| 2026-04-25 19:57 | 33.94125 | -118.41202 | 133 ft | 2 kts | 164° |
| 2026-04-25 19:57 | 33.94133 | -118.41205 | 133 ft | 0 kts | 174° |
| 2026-04-25 19:58 | 33.94136 | -118.41205 | 133 ft | 0 kts | 174° |
| 2026-04-25 20:01 | 33.94134 | -118.41205 | 133 ft | 0 kts | 173° |
| 2026-04-25 20:01 | 33.94122 | -118.41203 | 133 ft | 3 kts | 173° |
| 2026-04-25 20:01 | 33.94085 | -118.41197 | 134 ft | 7 kts | 172° |
| 2026-04-25 20:02 | 33.94020 | -118.41187 | 134 ft | 9 kts | 173° |
| 2026-04-25 20:02 | 33.93949 | -118.41177 | 134 ft | 10 kts | 174° |
| 2026-04-25 20:02 | 33.93873 | -118.41167 | 135 ft | 11 kts | 174° |
| 2026-04-25 20:02 | 33.93795 | -118.41153 | 135 ft | 11 kts | 158° |
| 2026-04-25 20:03 | 33.93770 | -118.41073 | 136 ft | 11 kts | 83° |
| 2026-04-25 20:03 | 33.93780 | -118.40973 | 136 ft | 12 kts | 83° |
| 2026-04-25 20:03 | 33.93792 | -118.40855 | 136 ft | 15 kts | 83° |
| 2026-04-25 20:03 | 33.93805 | -118.40722 | 135 ft | 16 kts | 83° |
| 2026-04-25 20:04 | 33.93820 | -118.40583 | 134 ft | 17 kts | 83° |
| 2026-04-25 20:04 | 33.93835 | -118.40433 | 133 ft | 18 kts | 83° |
| 2026-04-25 20:04 | 33.93851 | -118.40275 | 131 ft | 19 kts | 83° |
| 2026-04-25 20:04 | 33.93868 | -118.40107 | 128 ft | 20 kts | 83° |
| 2026-04-25 20:05 | 33.93886 | -118.39932 | 126 ft | 21 kts | 83° |
| 2026-04-25 20:05 | 33.93905 | -118.39747 | 123 ft | 22 kts | 82° |
| 2026-04-25 20:05 | 33.93925 | -118.39556 | 121 ft | 23 kts | 83° |
| 2026-04-25 20:05 | 33.93944 | -118.39360 | 119 ft | 23 kts | 83° |
| 2026-04-25 20:06 | 33.93965 | -118.39162 | 117 ft | 23 kts | 83° |
| 2026-04-25 20:06 | 33.93985 | -118.38965 | 116 ft | 23 kts | 83° |
| 2026-04-25 20:06 | 33.94004 | -118.38768 | 115 ft | 23 kts | 83° |
| 2026-04-25 20:06 | 33.94022 | -118.38603 | 114 ft | 17 kts | 83° |
| 2026-04-25 20:07 | 33.94037 | -118.38463 | 113 ft | 16 kts | 83° |
| 2026-04-25 20:07 | 33.94046 | -118.38377 | 113 ft | 6 kts | 83° |
| 2026-04-25 20:07 | 33.94044 | -118.38354 | 113 ft | 3 kts | 109° |
| 2026-04-25 20:07 | 33.94019 | -118.38333 | 113 ft | 6 kts | 163° |
| 2026-04-25 20:08 | 33.93968 | -118.38332 | 113 ft | 7 kts | 205° |
| 2026-04-25 20:08 | 33.93949 | -118.38380 | 113 ft | 0 kts | 262° |
| 2026-04-25 20:08 | 33.93948 | -118.38382 | 113 ft | 1 kts | 262° |
| 2026-04-25 20:08 | 33.93923 | -118.38612 | 114 ft | 60 kts | 263° |
| 2026-04-25 20:09 | 33.93847 | -118.39371 | 119 ft | 119 kts | 263° |
| 2026-04-25 20:09 | 33.93727 | -118.40556 | 155 ft | 163 kts | 264° |
| 2026-04-25 20:09 | 33.93613 | -118.41962 | 588 ft | 171 kts | 264° |
| 2026-04-25 20:09 | 33.93499 | -118.43383 | 1124 ft | 176 kts | 264° |
| 2026-04-25 20:10 | 33.93406 | -118.44360 | 1512 ft | 179 kts | 263° |
| 2026-04-25 20:10 | 33.93210 | -118.46384 | 2216 ft | 189 kts | 261° |
| 2026-04-25 20:10 | 33.92914 | -118.47944 | 2705 ft | 197 kts | 246° |
| 2026-04-25 20:10 | 33.92123 | -118.49314 | 3166 ft | 207 kts | 222° |
| 2026-04-25 20:11 | 33.90992 | -118.50461 | 3621 ft | 220 kts | 221° |
| 2026-04-25 20:11 | 33.89810 | -118.51683 | 4065 ft | 234 kts | 221° |
| 2026-04-25 20:11 | 33.88535 | -118.53011 | 4454 ft | 251 kts | 221° |
| 2026-04-25 20:11 | 33.87177 | -118.54425 | 4963 ft | 264 kts | 221° |
| 2026-04-25 20:12 | 33.85780 | -118.55870 | 5694 ft | 268 kts | 221° |
| 2026-04-25 20:12 | 33.84353 | -118.57337 | 6453 ft | 270 kts | 222° |
| 2026-04-25 20:12 | 33.82935 | -118.58787 | 7209 ft | 271 kts | 221° |
| 2026-04-25 20:12 | 33.81973 | -118.59766 | 7738 ft | 271 kts | 222° |
| 2026-04-25 20:13 | 33.80067 | -118.61696 | 8806 ft | 270 kts | 222° |
| 2026-04-25 20:13 | 33.78646 | -118.63126 | 9576 ft | 270 kts | 221° |
| 2026-04-25 20:13 | 33.77129 | -118.64464 | 10299 ft | 273 kts | 207° |
| 2026-04-25 20:13 | 33.75217 | -118.64882 | 10665 ft | 296 kts | 178° |
| 2026-04-25 20:14 | 33.73198 | -118.64011 | 11030 ft | 323 kts | 150° |
| 2026-04-25 20:14 | 33.71658 | -118.62015 | 11635 ft | 341 kts | 123° |
| 2026-04-25 20:14 | 33.71009 | -118.59236 | 12289 ft | 356 kts | 96° |
| 2026-04-25 20:14 | 33.71439 | -118.56264 | 12769 ft | 369 kts | 69° |
| 2026-04-25 20:15 | 33.72879 | -118.53719 | 12966 ft | 369 kts | 42° |
| 2026-04-25 20:15 | 33.75041 | -118.52150 | 12971 ft | 360 kts | 14° |
| 2026-04-25 20:15 | 33.77449 | -118.51417 | 12983 ft | 358 kts | 9° |
| 2026-04-25 20:15 | 33.79866 | -118.50645 | 12976 ft | 360 kts | 13° |
| 2026-04-25 20:16 | 33.82252 | -118.49657 | 13086 ft | 366 kts | 18° |
| 2026-04-25 20:16 | 33.84595 | -118.48493 | 13671 ft | 371 kts | 20° |
| 2026-04-25 20:16 | 33.86975 | -118.47212 | 14403 ft | 373 kts | 21° |
| 2026-04-25 20:16 | 33.89314 | -118.45920 | 15064 ft | 376 kts | 21° |
| 2026-04-25 20:17 | 33.91681 | -118.44503 | 15662 ft | 383 kts | 30° |
| 2026-04-25 20:17 | 33.93761 | -118.42475 | 16250 ft | 390 kts | 46° |
| 2026-04-25 20:17 | 33.95426 | -118.39890 | 16851 ft | 395 kts | 56° |